sensor_id;sensor_type;location;lat;lon;timestamp;pressure;altitude;pressure_sealevel;temperature;humidity
71153;BME280;58822;51.438;5.436;2022-07-06T00:00:31;102175.44;;;15.15;54.52
71153;BME280;58822;51.438;5.436;2022-07-06T00:02:56;102371.53;;;16.32;54.79
71153;BME280;58822;51.438;5.436;2022-07-06T00:05:22;102404.00;;;16.27;54.36
71153;BME280;58822;51.438;5.436;2022-07-06T00:07:47;102042.88;;;14.50;55.09
71153;BME280;58822;51.438;5.436;2022-07-06T00:10:13;102280.09;;;15.75;55.47
71153;BME280;58822;51.438;5.436;2022-07-06T00:12:38;102402.19;;;16.16;54.63
71153;BME280;58822;51.438;5.436;2022-07-06T00:15:04;102106.91;;;14.72;55.54
71153;BME280;58822;51.438;5.436;2022-07-06T00:17:30;102351.38;;;15.89;55.69
71153;BME280;58822;51.438;5.436;2022-07-06T00:19:55;102234.50;;;15.28;56.01
71153;BME280;58822;51.438;5.436;2022-07-06T00:22:20;101915.78;;;13.11;55.69
71153;BME280;58822;51.438;5.436;2022-07-06T00:24:48;102109.50;;;14.52;56.10
71153;BME280;58822;51.438;5.436;2022-07-06T00:27:13;102298.34;;;15.46;55.65
71153;BME280;58822;51.438;5.436;2022-07-06T00:29:39;102062.88;;;13.93;55.89
71153;BME280;58822;51.438;5.436;2022-07-06T00:32:11;101972.97;;;13.43;56.35
71153;BME280;58822;51.438;5.436;2022-07-06T00:34:37;101902.16;;;12.46;56.31
71153;BME280;58822;51.438;5.436;2022-07-06T00:37:05;102356.25;;;15.55;56.79
71153;BME280;58822;51.438;5.436;2022-07-06T00:39:32;101450.84;;;9.95;56.27
71153;BME280;58822;51.438;5.436;2022-07-06T00:41:57;101250.56;;;9.07;56.55
71153;BME280;58822;51.438;5.436;2022-07-06T00:44:22;101985.25;;;13.35;56.84
71153;BME280;58822;51.438;5.436;2022-07-06T00:46:48;101950.69;;;13.16;57.23
71153;BME280;58822;51.438;5.436;2022-07-06T00:49:13;102099.19;;;13.55;57.23
71153;BME280;58822;51.438;5.436;2022-07-06T00:51:57;102225.78;;;14.48;57.16
71153;BME280;58822;51.438;5.436;2022-07-06T00:54:25;102246.47;;;14.67;57.41
71153;BME280;58822;51.438;5.436;2022-07-06T00:56:50;102414.59;;;15.69;57.44
71153;BME280;58822;51.438;5.436;2022-07-06T00:59:16;102333.88;;;14.79;57.14
71153;BME280;58822;51.438;5.436;2022-07-06T01:01:42;102077.25;;;13.71;57.28
71153;BME280;58822;51.438;5.436;2022-07-06T01:04:07;102305.56;;;14.90;57.96
71153;BME280;58822;51.438;5.436;2022-07-06T01:06:32;102268.22;;;14.59;57.33
71153;BME280;58822;51.438;5.436;2022-07-06T01:08:59;102016.38;;;13.18;58.30
71153;BME280;58822;51.438;5.436;2022-07-06T01:11:24;102317.69;;;14.81;58.08
71153;BME280;58822;51.438;5.436;2022-07-06T01:13:50;101921.59;;;12.51;58.05
71153;BME280;58822;51.438;5.436;2022-07-06T01:16:17;102487.28;;;15.21;58.36
71153;BME280;58822;51.438;5.436;2022-07-06T01:18:42;102365.94;;;14.89;57.95
71153;BME280;58822;51.438;5.436;2022-07-06T01:21:10;102152.44;;;13.91;58.22
71153;BME280;58822;51.438;5.436;2022-07-06T01:23:42;101911.06;;;12.58;58.18
71153;BME280;58822;51.438;5.436;2022-07-06T01:26:10;102292.34;;;14.68;58.73
71153;BME280;58822;51.438;5.436;2022-07-06T01:28:35;102310.38;;;14.48;58.59
71153;BME280;58822;51.438;5.436;2022-07-06T01:31:01;102317.31;;;14.58;58.15
71153;BME280;58822;51.438;5.436;2022-07-06T01:33:27;102199.50;;;14.06;58.74
71153;BME280;58822;51.438;5.436;2022-07-06T01:35:52;102203.19;;;13.89;58.55
71153;BME280;58822;51.438;5.436;2022-07-06T01:38:17;102104.13;;;13.44;59.02
71153;BME280;58822;51.438;5.436;2022-07-06T01:40:43;102387.53;;;14.98;58.99
71153;BME280;58822;51.438;5.436;2022-07-06T01:43:08;102196.66;;;13.84;58.71
71153;BME280;58822;51.438;5.436;2022-07-06T01:45:36;102197.00;;;13.60;59.03
71153;BME280;58822;51.438;5.436;2022-07-06T01:48:05;102345.47;;;14.63;58.96
71153;BME280;58822;51.438;5.436;2022-07-06T01:50:31;102156.66;;;13.62;58.92
71153;BME280;58822;51.438;5.436;2022-07-06T01:52:59;102242.22;;;13.82;59.70
71153;BME280;58822;51.438;5.436;2022-07-06T01:55:25;102186.97;;;13.54;59.51
71153;BME280;58822;51.438;5.436;2022-07-06T01:57:50;102444.75;;;14.62;59.92
71153;BME280;58822;51.438;5.436;2022-07-06T02:00:15;102392.88;;;14.81;59.95
71153;BME280;58822;51.438;5.436;2022-07-06T02:02:41;102199.13;;;13.36;59.47
71153;BME280;58822;51.438;5.436;2022-07-06T02:05:06;102366.56;;;14.30;60.13
71153;BME280;58822;51.438;5.436;2022-07-06T02:07:32;102195.22;;;13.31;59.82
71153;BME280;58822;51.438;5.436;2022-07-06T02:09:57;102055.19;;;12.71;59.94
71153;BME280;58822;51.438;5.436;2022-07-06T02:12:23;102189.22;;;13.04;60.50
71153;BME280;58822;51.438;5.436;2022-07-06T02:14:48;101991.78;;;12.20;60.31
71153;BME280;58822;51.438;5.436;2022-07-06T02:17:14;102306.84;;;14.10;60.68
71153;BME280;58822;51.438;5.436;2022-07-06T02:19:39;102019.78;;;12.06;60.49
71153;BME280;58822;51.438;5.436;2022-07-06T02:22:04;102303.47;;;13.73;60.46
71153;BME280;58822;51.438;5.436;2022-07-06T02:24:30;101946.56;;;11.70;60.96
71153;BME280;58822;51.438;5.436;2022-07-06T02:26:55;102181.47;;;13.04;61.03
71153;BME280;58822;51.438;5.436;2022-07-06T02:29:20;102353.34;;;14.08;61.18
71153;BME280;58822;51.438;5.436;2022-07-06T02:31:46;101978.41;;;11.79;60.94
71153;BME280;58822;51.438;5.436;2022-07-06T02:34:12;101608.31;;;10.01;61.00
71153;BME280;58822;51.438;5.436;2022-07-06T02:36:37;101513.56;;;9.35;61.05
71153;BME280;58822;51.438;5.436;2022-07-06T02:39:03;101117.53;;;6.66;61.20
71153;BME280;58822;51.438;5.436;2022-07-06T02:41:28;101819.00;;;10.41;61.08
71153;BME280;58822;51.438;5.436;2022-07-06T02:43:53;102450.75;;;14.25;61.99
71153;BME280;58822;51.438;5.436;2022-07-06T02:46:19;101419.19;;;8.21;61.87
71153;BME280;58822;51.438;5.436;2022-07-06T02:48:44;101440.44;;;8.79;61.96
71153;BME280;58822;51.438;5.436;2022-07-06T02:51:10;101414.94;;;8.63;62.17
71153;BME280;58822;51.438;5.436;2022-07-06T02:53:35;101411.53;;;8.29;62.17
71153;BME280;58822;51.438;5.436;2022-07-06T02:56:00;101416.94;;;8.15;61.93
71153;BME280;58822;51.438;5.436;2022-07-06T02:58:26;101975.81;;;11.70;62.08
71153;BME280;58822;51.438;5.436;2022-07-06T03:00:51;101853.78;;;10.90;61.79
71153;BME280;58822;51.438;5.436;2022-07-06T03:03:17;102438.56;;;14.24;61.86
71153;BME280;58822;51.438;5.436;2022-07-06T03:05:42;101914.56;;;10.88;61.53
71153;BME280;58822;51.438;5.436;2022-07-06T03:08:08;102146.53;;;12.63;61.74
71153;BME280;58822;51.438;5.436;2022-07-06T03:10:33;101679.25;;;10.16;61.55
71153;BME280;58822;51.438;5.436;2022-07-06T03:12:58;101352.16;;;7.50;61.36
71153;BME280;58822;51.438;5.436;2022-07-06T03:15:24;101611.38;;;9.71;61.29
71153;BME280;58822;51.438;5.436;2022-07-06T03:17:49;101741.19;;;10.27;61.58
71153;BME280;58822;51.438;5.436;2022-07-06T03:20:14;102424.44;;;13.84;62.81
71153;BME280;58822;51.438;5.436;2022-07-06T03:22:40;101961.34;;;11.45;62.38
71153;BME280;58822;51.438;5.436;2022-07-06T03:25:05;102368.38;;;13.93;62.15
71153;BME280;58822;51.438;5.436;2022-07-06T03:27:31;101765.09;;;10.43;62.19
71153;BME280;58822;51.438;5.436;2022-07-06T03:29:57;101815.00;;;10.10;61.94
71153;BME280;58822;51.438;5.436;2022-07-06T03:32:22;101651.91;;;9.73;62.25
71153;BME280;58822;51.438;5.436;2022-07-06T03:34:55;101920.38;;;11.48;62.12
71153;BME280;58822;51.438;5.436;2022-07-06T03:37:20;102117.75;;;12.41;61.80
71153;BME280;58822;51.438;5.436;2022-07-06T03:39:46;102468.38;;;14.29;62.07
71153;BME280;58822;51.438;5.436;2022-07-06T03:42:11;102330.94;;;13.90;62.26
71153;BME280;58822;51.438;5.436;2022-07-06T03:44:36;102068.63;;;12.50;61.91
71153;BME280;58822;51.438;5.436;2022-07-06T03:47:02;101975.88;;;11.53;61.55
71153;BME280;58822;51.438;5.436;2022-07-06T03:49:27;101924.25;;;11.70;61.92
71153;BME280;58822;51.438;5.436;2022-07-06T03:51:53;102329.34;;;14.00;62.31
71153;BME280;58822;51.438;5.436;2022-07-06T03:54:19;102162.88;;;13.08;62.20
71153;BME280;58822;51.438;5.436;2022-07-06T03:56:44;102504.84;;;14.49;61.96
71153;BME280;58822;51.438;5.436;2022-07-06T03:59:10;102178.78;;;13.22;62.21
71153;BME280;58822;51.438;5.436;2022-07-06T04:01:35;102145.75;;;13.00;62.22
71153;BME280;58822;51.438;5.436;2022-07-06T04:04:00;102240.69;;;13.56;62.41
71153;BME280;58822;51.438;5.436;2022-07-06T04:06:26;102294.22;;;13.66;61.96
71153;BME280;58822;51.438;5.436;2022-07-06T04:08:51;102215.50;;;13.45;62.03
71153;BME280;58822;51.438;5.436;2022-07-06T04:11:17;102128.72;;;12.75;62.53
71153;BME280;58822;51.438;5.436;2022-07-06T04:13:42;102042.53;;;12.02;62.30
71153;BME280;58822;51.438;5.436;2022-07-06T04:16:08;101904.81;;;11.74;62.28
71153;BME280;58822;51.438;5.436;2022-07-06T04:18:34;102274.31;;;13.84;62.23
71153;BME280;58822;51.438;5.436;2022-07-06T04:20:59;102216.22;;;13.25;62.32
71153;BME280;58822;51.438;5.436;2022-07-06T04:23:25;102205.25;;;13.28;62.31
71153;BME280;58822;51.438;5.436;2022-07-06T04:25:50;101987.25;;;12.08;61.56
71153;BME280;58822;51.438;5.436;2022-07-06T04:28:16;102417.50;;;14.76;62.15
71153;BME280;58822;51.438;5.436;2022-07-06T04:30:41;102429.97;;;14.80;61.82
71153;BME280;58822;51.438;5.436;2022-07-06T04:33:07;102171.44;;;13.35;62.17
71153;BME280;58822;51.438;5.436;2022-07-06T04:35:32;102336.69;;;14.34;62.26
71153;BME280;58822;51.438;5.436;2022-07-06T04:37:58;102459.25;;;14.79;62.39
71153;BME280;58822;51.438;5.436;2022-07-06T04:40:23;102153.13;;;13.42;62.39
71153;BME280;58822;51.438;5.436;2022-07-06T04:42:49;101913.44;;;11.92;62.19
71153;BME280;58822;51.438;5.436;2022-07-06T04:45:14;102348.31;;;14.28;62.03
71153;BME280;58822;51.438;5.436;2022-07-06T04:47:39;102276.34;;;14.16;62.03
71153;BME280;58822;51.438;5.436;2022-07-06T04:50:05;102098.34;;;12.64;62.27
71153;BME280;58822;51.438;5.436;2022-07-06T04:52:31;102278.25;;;14.27;62.58
71153;BME280;58822;51.438;5.436;2022-07-06T04:54:57;102141.19;;;13.06;61.77
71153;BME280;58822;51.438;5.436;2022-07-06T04:57:22;102112.75;;;13.34;62.02
71153;BME280;58822;51.438;5.436;2022-07-06T04:59:47;101976.66;;;12.60;61.84
71153;BME280;58822;51.438;5.436;2022-07-06T05:02:13;102398.19;;;15.02;61.88
71153;BME280;58822;51.438;5.436;2022-07-06T05:04:38;102397.56;;;15.04;62.29
71153;BME280;58822;51.438;5.436;2022-07-06T05:07:04;102230.72;;;13.70;62.24
71153;BME280;58822;51.438;5.436;2022-07-06T05:09:31;102107.28;;;13.50;61.66
71153;BME280;58822;51.438;5.436;2022-07-06T05:11:56;102441.59;;;15.23;62.22
71153;BME280;58822;51.438;5.436;2022-07-06T05:14:28;101957.44;;;12.76;61.78
71153;BME280;58822;51.438;5.436;2022-07-06T05:16:53;102308.41;;;14.45;61.53
71153;BME280;58822;51.438;5.436;2022-07-06T05:19:19;102212.78;;;14.38;61.83
71153;BME280;58822;51.438;5.436;2022-07-06T05:21:44;102109.16;;;13.80;61.46
71153;BME280;58822;51.438;5.436;2022-07-06T05:24:10;102270.38;;;14.55;61.00
71153;BME280;58822;51.438;5.436;2022-07-06T05:26:35;102199.09;;;14.49;61.19
71153;BME280;58822;51.438;5.436;2022-07-06T05:29:01;102486.66;;;15.82;60.75
71153;BME280;58822;51.438;5.436;2022-07-06T05:31:26;102463.47;;;15.93;60.95
71153;BME280;58822;51.438;5.436;2022-07-06T05:33:51;102045.41;;;13.62;60.31
71153;BME280;58822;51.438;5.436;2022-07-06T05:36:17;102088.66;;;14.31;60.78
71153;BME280;58822;51.438;5.436;2022-07-06T05:38:43;102242.88;;;15.05;60.26
71153;BME280;58822;51.438;5.436;2022-07-06T05:41:08;102120.09;;;14.55;59.93
71153;BME280;58822;51.438;5.436;2022-07-06T05:43:37;101599.22;;;11.79;59.36
71153;BME280;58822;51.438;5.436;2022-07-06T05:46:03;102417.72;;;16.98;58.91
71153;BME280;58822;51.438;5.436;2022-07-06T05:48:28;101713.28;;;12.81;58.82
71153;BME280;58822;51.438;5.436;2022-07-06T05:51:12;102141.22;;;15.39;58.34
71153;BME280;58822;51.438;5.436;2022-07-06T05:53:37;101670.44;;;12.93;57.94
71153;BME280;58822;51.438;5.436;2022-07-06T05:56:03;101832.00;;;13.97;57.36
71153;BME280;58822;51.438;5.436;2022-07-06T05:58:29;101813.66;;;14.78;57.01
71153;BME280;58822;51.438;5.436;2022-07-06T06:00:54;101916.25;;;15.38;56.57
71153;BME280;58822;51.438;5.436;2022-07-06T06:03:21;102308.56;;;17.65;56.25
71153;BME280;58822;51.438;5.436;2022-07-06T06:05:46;102359.13;;;18.46;55.94
71153;BME280;58822;51.438;5.436;2022-07-06T06:08:12;102206.59;;;17.71;55.62
71153;BME280;58822;51.438;5.436;2022-07-06T06:10:37;101994.50;;;16.63;54.89
71153;BME280;58822;51.438;5.436;2022-07-06T06:13:03;101668.84;;;14.60;54.69
71153;BME280;58822;51.438;5.436;2022-07-06T06:15:28;101391.16;;;13.98;53.76
71153;BME280;58822;51.438;5.436;2022-07-06T06:17:54;102012.38;;;17.51;54.11
71153;BME280;58822;51.438;5.436;2022-07-06T06:20:20;102159.41;;;17.90;54.32
71153;BME280;58822;51.438;5.436;2022-07-06T06:22:54;102420.38;;;20.19;53.55
71153;BME280;58822;51.438;5.436;2022-07-06T06:25:27;102344.13;;;19.75;52.90
71153;BME280;58822;51.438;5.436;2022-07-06T06:27:53;102386.00;;;20.51;52.00
71153;BME280;58822;51.438;5.436;2022-07-06T06:30:18;102346.25;;;20.57;51.74
71153;BME280;58822;51.438;5.436;2022-07-06T06:32:44;102123.59;;;19.21;51.68
71153;BME280;58822;51.438;5.436;2022-07-06T06:35:09;102331.78;;;20.24;52.58
71153;BME280;58822;51.438;5.436;2022-07-06T06:37:35;102406.34;;;20.30;52.55
71153;BME280;58822;51.438;5.436;2022-07-06T06:40:01;102343.78;;;20.47;52.32
71153;BME280;58822;51.438;5.436;2022-07-06T06:42:26;102285.91;;;20.15;51.76
71153;BME280;58822;51.438;5.436;2022-07-06T06:44:52;102106.97;;;19.07;52.44
71153;BME280;58822;51.438;5.436;2022-07-06T06:47:17;102033.97;;;18.95;51.67
71153;BME280;58822;51.438;5.436;2022-07-06T06:49:44;102282.91;;;20.49;51.35
71153;BME280;58822;51.438;5.436;2022-07-06T06:52:09;102106.72;;;19.29;51.23
71153;BME280;58822;51.438;5.436;2022-07-06T06:54:35;102445.25;;;21.42;51.05
71153;BME280;58822;51.438;5.436;2022-07-06T06:57:00;101919.44;;;18.87;50.38
71153;BME280;58822;51.438;5.436;2022-07-06T06:59:26;102296.59;;;20.85;49.18
71153;BME280;58822;51.438;5.436;2022-07-06T07:01:51;101843.56;;;18.70;48.92
71153;BME280;58822;51.438;5.436;2022-07-06T07:04:16;101878.00;;;19.05;48.98
71153;BME280;58822;51.438;5.436;2022-07-06T07:06:42;102498.53;;;22.24;48.43
71153;BME280;58822;51.438;5.436;2022-07-06T07:09:08;102511.09;;;22.29;48.47
71153;BME280;58822;51.438;5.436;2022-07-06T07:11:33;102567.97;;;22.44;48.21
71153;BME280;58822;51.438;5.436;2022-07-06T07:13:59;101741.00;;;18.18;47.80
71153;BME280;58822;51.438;5.436;2022-07-06T07:16:26;101867.38;;;19.56;46.81
71153;BME280;58822;51.438;5.436;2022-07-06T07:18:51;102433.50;;;22.92;47.07
71153;BME280;58822;51.438;5.436;2022-07-06T07:21:17;101771.44;;;19.25;46.02
71153;BME280;58822;51.438;5.436;2022-07-06T07:23:42;101927.38;;;19.96;44.48
71153;BME280;58822;51.438;5.436;2022-07-06T07:26:08;101565.06;;;18.38;45.97
71153;BME280;58822;51.438;5.436;2022-07-06T07:28:33;102433.59;;;23.40;45.78
71153;BME280;58822;51.438;5.436;2022-07-06T07:30:59;102486.69;;;23.49;44.43
71153;BME280;58822;51.438;5.436;2022-07-06T07:33:24;102147.59;;;21.31;44.81
71153;BME280;58822;51.438;5.436;2022-07-06T07:35:50;101977.97;;;20.53;44.99
71153;BME280;58822;51.438;5.436;2022-07-06T07:38:15;102307.50;;;22.03;44.14
71153;BME280;58822;51.438;5.436;2022-07-06T07:40:41;101890.69;;;19.53;44.23
71153;BME280;58822;51.438;5.436;2022-07-06T07:43:06;102488.63;;;23.37;43.77
71153;BME280;58822;51.438;5.436;2022-07-06T07:45:32;102286.75;;;22.67;43.51
71153;BME280;58822;51.438;5.436;2022-07-06T07:47:57;102217.53;;;22.19;43.26
71153;BME280;58822;51.438;5.436;2022-07-06T07:50:22;102315.25;;;22.76;42.99
71153;BME280;58822;51.438;5.436;2022-07-06T07:52:48;101544.66;;;18.18;42.73
71153;BME280;58822;51.438;5.436;2022-07-06T07:55:13;101719.47;;;19.43;42.81
71153;BME280;58822;51.438;5.436;2022-07-06T07:57:39;101790.00;;;19.86;42.55
71153;BME280;58822;51.438;5.436;2022-07-06T08:00:05;102259.66;;;22.68;41.91
71153;BME280;58822;51.438;5.436;2022-07-06T08:02:31;102146.50;;;22.47;41.15
71153;BME280;58822;51.438;5.436;2022-07-06T08:04:56;102229.75;;;22.81;40.72
71153;BME280;58822;51.438;5.436;2022-07-06T08:07:24;102465.78;;;24.14;41.00
71153;BME280;58822;51.438;5.436;2022-07-06T08:09:49;101835.06;;;20.55;41.36
71153;BME280;58822;51.438;5.436;2022-07-06T08:12:21;102497.72;;;24.38;40.30
71153;BME280;58822;51.438;5.436;2022-07-06T08:14:47;101877.47;;;20.79;40.14
71153;BME280;58822;51.438;5.436;2022-07-06T08:17:12;101569.88;;;19.46;40.63
71153;BME280;58822;51.438;5.436;2022-07-06T08:19:38;102266.84;;;23.18;40.55
71153;BME280;58822;51.438;5.436;2022-07-06T08:22:03;101925.84;;;20.85;40.11
71153;BME280;58822;51.438;5.436;2022-07-06T08:24:33;102083.22;;;22.10;40.41
71153;BME280;58822;51.438;5.436;2022-07-06T08:26:59;101806.19;;;20.53;40.41
71153;BME280;58822;51.438;5.436;2022-07-06T08:29:24;101881.19;;;20.99;40.11
71153;BME280;58822;51.438;5.436;2022-07-06T08:31:50;101659.97;;;19.97;40.31
71153;BME280;58822;51.438;5.436;2022-07-06T08:34:15;101824.03;;;20.60;40.33
71153;BME280;58822;51.438;5.436;2022-07-06T08:36:41;101640.88;;;19.54;39.59
71153;BME280;58822;51.438;5.436;2022-07-06T08:39:06;102460.16;;;24.57;40.23
71153;BME280;58822;51.438;5.436;2022-07-06T08:41:33;102046.84;;;22.82;39.32
71153;BME280;58822;51.438;5.436;2022-07-06T08:43:59;102000.38;;;22.46;39.55
71153;BME280;58822;51.438;5.436;2022-07-06T08:46:27;102264.94;;;23.98;38.68
71153;BME280;58822;51.438;5.436;2022-07-06T08:48:54;101793.63;;;21.08;38.90
71153;BME280;58822;51.438;5.436;2022-07-06T08:51:20;101904.03;;;21.95;39.36
71153;BME280;58822;51.438;5.436;2022-07-06T08:53:46;102134.47;;;22.67;40.02
71153;BME280;58822;51.438;5.436;2022-07-06T08:56:14;102462.91;;;24.42;41.02
71153;BME280;58822;51.438;5.436;2022-07-06T08:58:42;101788.44;;;20.94;41.08
71153;BME280;58822;51.438;5.436;2022-07-06T09:01:11;101679.50;;;19.59;41.06
71153;BME280;58822;51.438;5.436;2022-07-06T09:03:41;102345.47;;;24.12;40.31
71153;BME280;58822;51.438;5.436;2022-07-06T09:06:07;102122.47;;;22.40;40.75
71153;BME280;58822;51.438;5.436;2022-07-06T09:08:33;102321.81;;;23.95;40.53
71153;BME280;58822;51.438;5.436;2022-07-06T09:11:01;102241.41;;;22.70;40.51
71153;BME280;58822;51.438;5.436;2022-07-06T09:13:27;101989.34;;;21.12;40.88
71153;BME280;58822;51.438;5.436;2022-07-06T09:15:52;102034.56;;;22.15;40.79
71153;BME280;58822;51.438;5.436;2022-07-06T09:18:21;102179.38;;;21.80;40.55
71153;BME280;58822;51.438;5.436;2022-07-06T09:20:46;102100.41;;;22.05;41.07
71153;BME280;58822;51.438;5.436;2022-07-06T09:23:15;101964.63;;;21.07;40.13
71153;BME280;58822;51.438;5.436;2022-07-06T09:25:41;102110.50;;;22.61;40.25
71153;BME280;58822;51.438;5.436;2022-07-06T09:28:09;102547.47;;;24.49;40.41
71153;BME280;58822;51.438;5.436;2022-07-06T09:30:34;102403.38;;;24.80;40.25
71153;BME280;58822;51.438;5.436;2022-07-06T09:33:07;101831.28;;;21.74;39.63
71153;BME280;58822;51.438;5.436;2022-07-06T09:35:37;102249.22;;;23.99;39.27
71153;BME280;58822;51.438;5.436;2022-07-06T09:38:11;102404.72;;;24.90;39.12
71153;BME280;58822;51.438;5.436;2022-07-06T09:40:41;102316.19;;;24.06;38.99
71153;BME280;58822;51.438;5.436;2022-07-06T09:43:15;102415.03;;;24.67;39.78
71153;BME280;58822;51.438;5.436;2022-07-06T09:45:43;101880.84;;;21.07;39.64
71153;BME280;58822;51.438;5.436;2022-07-06T09:48:14;102182.44;;;23.29;38.92
71153;BME280;58822;51.438;5.436;2022-07-06T09:50:54;102049.16;;;22.43;39.12
71153;BME280;58822;51.438;5.436;2022-07-06T09:53:22;102101.22;;;22.04;39.76
71153;BME280;58822;51.438;5.436;2022-07-06T09:55:52;101925.44;;;21.24;40.60
71153;BME280;58822;51.438;5.436;2022-07-06T09:58:19;102279.16;;;22.88;40.24
71153;BME280;58822;51.438;5.436;2022-07-06T10:00:46;102420.97;;;23.80;40.33
71153;BME280;58822;51.438;5.436;2022-07-06T10:03:13;102259.63;;;23.14;40.02
71153;BME280;58822;51.438;5.436;2022-07-06T10:05:41;102074.88;;;22.02;40.00
71153;BME280;58822;51.438;5.436;2022-07-06T10:08:08;102139.59;;;22.33;40.33
71153;BME280;58822;51.438;5.436;2022-07-06T10:10:38;102130.13;;;21.59;39.87
71153;BME280;58822;51.438;5.436;2022-07-06T10:13:04;102272.13;;;22.87;40.12
71153;BME280;58822;51.438;5.436;2022-07-06T10:15:36;102342.34;;;23.21;40.49
71153;BME280;58822;51.438;5.436;2022-07-06T10:18:07;102478.25;;;23.86;40.23
71153;BME280;58822;51.438;5.436;2022-07-06T10:20:35;102003.44;;;21.59;39.81
71153;BME280;58822;51.438;5.436;2022-07-06T10:23:05;102044.03;;;21.82;39.67
71153;BME280;58822;51.438;5.436;2022-07-06T10:25:33;102051.09;;;21.83;39.70
71153;BME280;58822;51.438;5.436;2022-07-06T10:27:59;101449.09;;;18.32;40.30
71153;BME280;58822;51.438;5.436;2022-07-06T10:30:25;101807.16;;;20.26;39.63
71153;BME280;58822;51.438;5.436;2022-07-06T10:32:51;101907.66;;;20.44;40.21
71153;BME280;58822;51.438;5.436;2022-07-06T10:35:20;102029.81;;;21.47;39.67
71153;BME280;58822;51.438;5.436;2022-07-06T10:38:09;101835.66;;;20.21;39.72
71153;BME280;58822;51.438;5.436;2022-07-06T10:40:37;102414.56;;;23.91;40.06
71153;BME280;58822;51.438;5.436;2022-07-06T10:43:21;102074.63;;;21.67;39.44
71153;BME280;58822;51.438;5.436;2022-07-06T10:53:11;102356.09;;;23.17;39.58
71153;BME280;58822;51.438;5.436;2022-07-06T10:55:47;102429.19;;;23.55;39.78
71153;BME280;58822;51.438;5.436;2022-07-06T10:58:46;102409.06;;;23.56;39.65
71153;BME280;58822;51.438;5.436;2022-07-06T11:01:12;101558.66;;;18.74;38.98
71153;BME280;58822;51.438;5.436;2022-07-06T11:04:05;102191.94;;;21.71;39.34
71153;BME280;58822;51.438;5.436;2022-07-06T11:06:36;101399.38;;;18.00;38.74
71153;BME280;58822;51.438;5.436;2022-07-06T11:09:03;102399.03;;;23.65;39.38
71153;BME280;58822;51.438;5.436;2022-07-06T11:14:13;102401.03;;;23.69;38.79
71153;BME280;58822;51.438;5.436;2022-07-06T11:19:22;102375.38;;;23.48;39.03
71153;BME280;58822;51.438;5.436;2022-07-06T11:22:05;102312.38;;;23.02;38.24
71153;BME280;58822;51.438;5.436;2022-07-06T11:24:33;102370.94;;;23.64;38.73
71153;BME280;58822;51.438;5.436;2022-07-06T11:26:59;102152.72;;;22.33;38.54
71153;BME280;58822;51.438;5.436;2022-07-06T11:29:27;102331.66;;;23.50;38.60
71153;BME280;58822;51.438;5.436;2022-07-06T11:31:55;102425.25;;;23.94;38.82
71153;BME280;58822;51.438;5.436;2022-07-06T11:34:22;102394.47;;;24.10;38.91
71153;BME280;58822;51.438;5.436;2022-07-06T11:36:48;102167.81;;;22.37;37.89
71153;BME280;58822;51.438;5.436;2022-07-06T11:39:14;102110.69;;;22.64;38.24
71153;BME280;58822;51.438;5.436;2022-07-06T11:41:40;102447.28;;;24.46;38.09
71153;BME280;58822;51.438;5.436;2022-07-06T11:44:06;101408.09;;;18.72;37.16
71153;BME280;58822;51.438;5.436;2022-07-06T11:46:33;101940.19;;;22.00;37.41
71153;BME280;58822;51.438;5.436;2022-07-06T11:49:05;101966.47;;;22.02;37.24
71153;BME280;58822;51.438;5.436;2022-07-06T11:51:40;102290.59;;;23.69;38.18
71153;BME280;58822;51.438;5.436;2022-07-06T11:54:09;102391.69;;;24.93;38.12
71153;BME280;58822;51.438;5.436;2022-07-06T11:56:35;102077.81;;;23.04;37.49
71153;BME280;58822;51.438;5.436;2022-07-06T11:59:02;102359.56;;;24.82;37.99
71153;BME280;58822;51.438;5.436;2022-07-06T12:01:29;102100.84;;;23.09;37.73
71153;BME280;58822;51.438;5.436;2022-07-06T12:04:00;102362.66;;;24.91;38.29
71153;BME280;58822;51.438;5.436;2022-07-06T12:06:27;101896.44;;;22.16;37.58
71153;BME280;58822;51.438;5.436;2022-07-06T12:08:54;102426.94;;;24.95;37.74
71153;BME280;58822;51.438;5.436;2022-07-06T12:11:41;102355.63;;;25.10;37.13
71153;BME280;58822;51.438;5.436;2022-07-06T12:16:39;102358.06;;;25.23;37.03
71153;BME280;58822;51.438;5.436;2022-07-06T12:19:08;101867.06;;;22.39;37.10
71153;BME280;58822;51.438;5.436;2022-07-06T12:21:36;101853.09;;;22.40;37.02
71153;BME280;58822;51.438;5.436;2022-07-06T12:24:07;101740.41;;;21.91;37.51
71153;BME280;58822;51.438;5.436;2022-07-06T12:26:39;101956.09;;;23.21;36.75
71153;BME280;58822;51.438;5.436;2022-07-06T12:29:07;101814.28;;;22.51;36.80
71153;BME280;58822;51.438;5.436;2022-07-06T12:31:38;102370.47;;;25.26;36.83
71153;BME280;58822;51.438;5.436;2022-07-06T12:34:15;101899.16;;;22.17;36.98
71153;BME280;58822;51.438;5.436;2022-07-06T12:36:48;102223.44;;;24.10;36.96
71153;BME280;58822;51.438;5.436;2022-07-06T12:39:15;102415.19;;;24.88;37.81
71153;BME280;58822;51.438;5.436;2022-07-06T12:42:04;102331.47;;;25.01;37.58
71153;BME280;58822;51.438;5.436;2022-07-06T12:44:30;101853.63;;;22.33;36.96
71153;BME280;58822;51.438;5.436;2022-07-06T12:47:07;102089.63;;;22.63;37.47
71153;BME280;58822;51.438;5.436;2022-07-06T12:49:35;101333.03;;;18.97;37.76
71153;BME280;58822;51.438;5.436;2022-07-06T12:52:03;101999.00;;;23.04;36.67
71153;BME280;58822;51.438;5.436;2022-07-06T12:54:34;102318.97;;;24.97;36.71
71153;BME280;58822;51.438;5.436;2022-07-06T12:57:17;101954.97;;;22.65;37.49
71153;BME280;58822;51.438;5.436;2022-07-06T12:59:44;102328.97;;;25.04;36.72
71153;BME280;58822;51.438;5.436;2022-07-06T13:02:27;101516.88;;;20.57;37.28
71153;BME280;58822;51.438;5.436;2022-07-06T13:05:01;102209.09;;;24.39;36.92